Time;durP1;ratioP1;P1;durP2;ratioP2;P2;SDS_P1;SDS_P2;PMS_P1;PMS_P2;Temp;Humidity;BMP_temperature;BMP_pressure;BME280_temperature;BME280_humidity;BME280_pressure;Samples;Min_cycle;Max_cycle;Signal;HPM_P1;HPM_P2
2022/05/30 00:00:26;;;;;;;12.70;7.50;;;;;;;9.71;98.54;99485.71;104789;1271;68296;-65
2022/05/30 00:03:13;;;;;;;10.20;6.60;;;;;;;9.73;99.15;99484.41;104990;1271;73377;-65
2022/05/30 00:06:00;;;;;;;13.50;7.00;;;;;;;9.73;98.87;99479.43;104956;1271;60255;-63
2022/05/30 00:08:47;;;;;;;11.30;6.60;;;;;;;9.73;98.70;99483.85;104955;1270;60509;-63
2022/05/30 00:11:33;;;;;;;10.50;6.20;;;;;;;9.75;98.97;99480.29;104973;1271;73702;-63
2022/05/30 00:14:19;;;;;;;10.50;6.40;;;;;;;9.77;98.80;99480.50;104982;1271;66073;-62
2022/05/30 00:17:07;;;;;;;10.50;5.80;;;;;;;9.78;98.39;99478.32;104846;1271;73396;-67
2022/05/30 00:19:56;;;;;;;9.70;6.00;;;;;;;9.79;99.07;99477.33;104983;1271;60705;-63
2022/05/30 00:22:42;;;;;;;9.80;5.90;;;;;;;9.83;99.17;99471.50;104945;1274;61440;-62
2022/05/30 00:25:29;;;;;;;11.10;6.90;;;;;;;9.85;98.74;99470.25;104912;1271;74535;-63
2022/05/30 00:28:16;;;;;;;11.00;6.30;;;;;;;9.86;98.44;99472.14;104941;1271;69862;-60
2022/05/30 00:31:09;;;;;;;13.30;6.00;;;;;;;9.86;98.39;99472.64;104984;1273;74222;-66
2022/05/30 00:33:56;;;;;;;10.20;6.30;;;;;;;9.88;98.51;99477.25;104824;1271;59669;-63
2022/05/30 00:36:43;;;;;;;11.70;7.10;;;;;;;9.88;98.53;99476.50;104935;1271;59650;-66
2022/05/30 00:39:30;;;;;;;11.00;6.90;;;;;;;9.91;99.05;99474.02;104749;1274;73565;-66
2022/05/30 00:42:20;;;;;;;11.70;7.30;;;;;;;9.92;98.73;99480.31;104986;1271;69661;-67
2022/05/30 00:45:08;;;;;;;12.00;7.20;;;;;;;9.93;98.86;99482.31;104726;1274;72574;-64
2022/05/30 00:47:57;;;;;;;11.40;6.70;;;;;;;9.95;98.75;99483.59;104739;1273;60926;-66
2022/05/30 00:50:45;;;;;;;10.50;6.20;;;;;;;9.96;98.97;99481.17;104972;1271;59633;-64
2022/05/30 00:53:33;;;;;;;11.20;6.70;;;;;;;9.99;99.19;99482.39;104958;1271;74233;-64
2022/05/30 00:56:27;;;;;;;11.30;6.70;;;;;;;10.02;99.15;99483.38;104970;1271;67094;-65
2022/05/30 00:59:14;;;;;;;12.40;7.50;;;;;;;10.03;98.70;99480.06;104764;1271;71382;-63
2022/05/30 01:02:02;;;;;;;12.50;8.00;;;;;;;10.03;98.69;99478.33;105002;1271;59663;-66
2022/05/30 01:07:58;;;;;;;13.10;7.70;;;;;;;10.08;98.97;99475.38;104884;1271;74583;-67
2022/05/30 01:10:45;;;;;;;10.70;6.70;;;;;;;10.10;98.53;99468.33;104766;1271;68541;-66
2022/05/30 01:13:32;;;;;;;14.60;8.10;;;;;;;10.09;98.02;99471.41;105011;1271;73309;-67
2022/05/30 01:16:19;;;;;;;14.00;8.30;;;;;;;10.07;97.97;99471.45;104780;1273;59674;-64
2022/05/30 01:19:20;;;;;;;12.00;7.50;;;;;;;10.04;98.49;99475.55;105012;1271;60892;-65
2022/05/30 01:22:37;;;;;;;13.20;7.50;;;;;;;9.98;98.43;99475.32;104768;1271;74753;-64
2022/05/30 01:25:55;;;;;;;12.50;8.20;;;;;;;9.95;98.72;99475.66;104974;1271;66734;-67
2022/05/30 01:29:04;;;;;;;13.00;8.20;;;;;;;9.92;99.09;99475.53;105016;1271;74437;-63
2022/05/30 01:31:54;;;;;;;14.90;8.50;;;;;;;9.92;99.45;99474.44;105121;1271;59640;-64
2022/05/30 01:34:42;;;;;;;14.00;8.20;;;;;;;9.94;99.73;99477.69;104866;1271;59733;-66
2022/05/30 01:37:29;;;;;;;15.50;8.80;;;;;;;9.96;99.93;99473.43;104936;1271;73848;-67
2022/05/30 01:40:15;;;;;;;13.70;8.30;;;;;;;9.98;99.90;99468.11;105008;1273;68700;-66
2022/05/30 01:43:03;;;;;;;13.30;8.70;;;;;;;10.02;99.96;99468.13;105454;1273;73522;-66
2022/05/30 01:45:49;;;;;;;14.80;8.80;;;;;;;10.03;99.87;99466.92;106134;1271;61284;-65
2022/05/30 01:48:39;;;;;;;13.50;7.90;;;;;;;10.05;99.79;99462.86;105495;1271;59948;-65
2022/05/30 01:51:26;;;;;;;15.20;9.20;;;;;;;10.05;99.36;99462.16;104855;1271;73458;-64
2022/05/30 01:54:15;;;;;;;17.20;10.10;;;;;;;10.03;99.69;99460.52;105041;1271;69642;-67
2022/05/30 01:57:21;;;;;;;19.20;10.40;;;;;;;10.00;99.62;99462.61;104914;1271;73367;-64
2022/05/30 02:00:28;;;;;;;19.60;10.30;;;;;;;10.00;99.87;99451.98;104906;1271;59707;-63
2022/05/30 02:03:17;;;;;;;20.40;10.30;;;;;;;9.98;99.77;99448.26;104901;1271;61526;-63
2022/05/30 02:06:03;;;;;;;22.60;11.50;;;;;;;9.92;99.67;99445.21;104829;1271;74636;-67
2022/05/30 02:08:52;;;;;;;23.40;12.30;;;;;;;9.86;99.60;99448.20;105028;1271;65841;-63
2022/05/30 02:11:40;;;;;;;28.30;13.00;;;;;;;9.80;99.58;99448.85;104753;1271;73279;-65
2022/05/30 02:14:54;;;;;;;30.10;14.30;;;;;;;9.73;99.79;99451.96;104788;1273;61361;-64
2022/05/30 02:17:42;;;;;;;32.10;14.80;;;;;;;9.72;100.00;99447.98;104855;1271;62016;-64
2022/05/30 02:20:29;;;;;;;33.00;16.10;;;;;;;9.74;100.00;99447.43;104815;1271;74976;-65
2022/05/30 02:23:17;;;;;;;28.40;15.50;;;;;;;9.76;100.00;99449.06;105140;1271;67572;-66
2022/05/30 02:26:04;;;;;;;32.60;15.80;;;;;;;9.79;100.00;99449.71;104863;1271;74197;-65
2022/05/30 02:28:51;;;;;;;31.40;15.30;;;;;;;9.81;100.00;99451.13;104946;1271;59677;-64
2022/05/30 02:31:38;;;;;;;34.10;14.90;;;;;;;9.83;100.00;99453.20;105137;1271;60414;-66
2022/05/30 02:37:31;;;;;;;29.80;14.60;;;;;;;9.86;100.00;99454.71;105047;1271;68569;-65
2022/05/30 02:40:23;;;;;;;32.70;15.30;;;;;;;9.87;100.00;99452.00;104812;1271;74473;-65
2022/05/30 02:43:26;;;;;;;29.70;14.60;;;;;;;9.89;100.00;99449.70;104898;1271;59681;-65
2022/05/30 02:46:14;;;;;;;30.70;14.90;;;;;;;9.92;100.00;99450.58;105012;1271;60700;-66
2022/05/30 02:49:02;;;;;;;32.00;14.20;;;;;;;9.93;100.00;99453.28;104942;1271;73771;-67
2022/05/30 02:51:50;;;;;;;28.40;14.10;;;;;;;9.96;100.00;99449.17;104787;1271;68290;-66
2022/05/30 02:54:37;;;;;;;25.30;12.70;;;;;;;9.97;100.00;99444.25;104821;1271;72602;-67
2022/05/30 02:57:32;;;;;;;24.50;11.90;;;;;;;9.98;100.00;99448.46;104954;1271;59697;-66
2022/05/30 03:00:26;;;;;;;22.20;10.70;;;;;;;9.96;100.00;99441.90;104958;1271;61958;-64
2022/05/30 03:03:14;;;;;;;17.90;8.90;;;;;;;9.94;100.00;99437.58;104956;1271;73772;-67
2022/05/30 03:06:03;;;;;;;17.20;8.50;;;;;;;9.88;100.00;99437.55;105194;1271;68660;-62
2022/05/30 03:08:50;;;;;;;19.00;9.30;;;;;;;9.86;100.00;99441.98;104866;1271;72509;-63
2022/05/30 03:11:56;;;;;;;19.60;9.20;;;;;;;9.89;100.00;99438.19;104760;1271;59726;-63
2022/05/30 03:14:43;;;;;;;21.00;9.30;;;;;;;9.91;100.00;99438.73;105123;1271;59590;-64
2022/05/30 03:17:29;;;;;;;20.80;9.40;;;;;;;9.95;100.00;99434.14;104925;1274;74834;-66
2022/05/30 03:20:16;;;;;;;21.00;9.90;;;;;;;9.97;100.00;99436.77;104833;1271;67350;-65
2022/05/30 03:23:03;;;;;;;24.00;10.50;;;;;;;9.99;100.00;99441.26;104799;1271;74330;-66
2022/05/30 03:26:22;;;;;;;23.10;10.50;;;;;;;10.00;100.00;99440.58;104835;1273;59642;-67
2022/05/30 03:29:10;;;;;;;24.10;10.60;;;;;;;10.04;100.00;99440.66;105114;1271;59627;-67
2022/05/30 03:32:00;;;;;;;22.50;10.00;;;;;;;10.08;100.00;99438.45;105051;1271;72426;-67
2022/05/30 03:34:47;;;;;;;22.70;9.90;;;;;;;10.09;100.00;99434.75;104815;1271;69109;-64
2022/05/30 03:37:37;;;;;;;22.70;10.00;;;;;;;10.09;100.00;99437.45;104869;1271;71750;-68
2022/05/30 03:40:42;;;;;;;20.50;8.70;;;;;;;10.10;100.00;99435.35;105032;1271;59761;-65
2022/05/30 03:43:52;;;;;;;20.80;9.30;;;;;;;10.10;100.00;99435.02;105211;1271;61937;-67
2022/05/30 03:46:39;;;;;;;21.90;9.80;;;;;;;10.13;100.00;99437.08;104869;1271;73187;-66
2022/05/30 03:49:25;;;;;;;18.90;9.50;;;;;;;10.16;100.00;99438.23;104741;1271;68742;-68
2022/05/30 03:52:14;;;;;;;17.60;9.30;;;;;;;10.19;100.00;99430.35;104902;1271;73245;-65
2022/05/30 03:55:12;;;;;;;18.70;9.20;;;;;;;10.22;100.00;99428.77;104852;1271;59556;-65
2022/05/30 03:57:58;;;;;;;17.70;9.90;;;;;;;10.22;100.00;99432.49;105125;1271;60175;-64
2022/05/30 04:00:45;;;;;;;19.50;10.30;;;;;;;10.24;100.00;99436.63;104872;1271;74098;-66
2022/05/30 04:03:34;;;;;;;20.00;11.90;;;;;;;10.24;100.00;99433.43;104830;1271;66826;-64
2022/05/30 04:06:21;;;;;;;21.90;12.00;;;;;;;10.25;100.00;99432.86;104797;1274;74411;-63
2022/05/30 04:09:08;;;;;;;21.40;12.40;;;;;;;10.26;100.00;99430.27;104719;1271;59643;-65
2022/05/30 04:12:10;;;;;;;22.10;13.20;;;;;;;10.27;100.00;99431.92;104809;1271;59670;-66
2022/05/30 04:15:22;;;;;;;23.90;12.70;;;;;;;10.28;100.00;99432.11;104766;1271;73789;-63
2022/05/30 04:18:08;;;;;;;20.70;12.60;;;;;;;10.25;100.00;99432.63;104830;1271;68597;-65
2022/05/30 04:20:54;;;;;;;24.30;13.10;;;;;;;10.29;100.00;99436.95;104885;1271;74407;-65
2022/05/30 04:23:43;;;;;;;23.00;13.70;;;;;;;10.31;100.00;99438.73;104787;1270;61545;-64
2022/05/30 04:26:34;;;;;;;26.20;14.50;;;;;;;10.33;100.00;99435.71;104628;1271;62327;-64
2022/05/30 04:29:20;;;;;;;21.80;12.70;;;;;;;10.33;100.00;99436.39;105006;1271;74976;-62
2022/05/30 04:32:26;;;;;;;19.20;11.80;;;;;;;10.33;100.00;99433.38;104923;1271;68551;-62
2022/05/30 04:35:15;;;;;;;21.00;12.50;;;;;;;10.31;100.00;99429.85;104764;1271;74078;-64
2022/05/30 04:38:01;;;;;;;21.80;12.50;;;;;;;10.31;100.00;99429.80;104877;1271;59804;-64
2022/05/30 04:40:57;;;;;;;21.10;13.10;;;;;;;10.31;100.00;99430.73;104949;1271;60599;-61
2022/05/30 04:44:05;;;;;;;20.50;12.40;;;;;;;10.35;100.00;99429.20;104779;1271;74784;-63
2022/05/30 04:47:27;;;;;;;22.80;13.20;;;;;;;10.39;100.00;99432.90;104820;1271;68480;-64
2022/05/30 04:50:17;;;;;;;20.50;13.10;;;;;;;10.44;100.00;99431.39;104842;1271;72336;-66
2022/05/30 04:53:04;;;;;;;21.90;13.00;;;;;;;10.48;100.00;99436.90;105482;1271;60708;-62
2022/05/30 04:56:11;;;;;;;21.90;12.90;;;;;;;10.51;100.00;99437.33;106133;1273;61176;-65
2022/05/30 04:59:19;;;;;;;21.90;13.30;;;;;;;10.61;100.00;99439.30;106148;1274;73809;-64
2022/05/30 05:02:12;;;;;;;24.80;14.00;;;;;;;10.69;100.00;99443.92;105134;1271;68449;-62
2022/05/30 05:05:06;;;;;;;22.50;12.00;;;;;;;10.77;100.00;99446.81;104953;1271;73348;-65
2022/05/30 05:08:13;;;;;;;24.50;13.70;;;;;;;10.81;100.00;99449.64;104848;1274;59773;-65
2022/05/30 05:11:24;;;;;;;22.80;13.20;;;;;;;10.85;100.00;99449.64;105062;1271;61943;-65
2022/05/30 05:14:31;;;;;;;27.80;16.60;;;;;;;10.92;100.00;99452.05;104988;1271;72634;-63
2022/05/30 05:17:21;;;;;;;18.30;11.10;;;;;;;10.97;100.00;99452.87;105109;1274;332311;-66
2022/05/30 05:20:09;;;;;;;18.90;10.80;;;;;;;11.00;100.00;99453.50;104932;1271;74438;-64
2022/05/30 05:22:55;;;;;;;18.70;10.90;;;;;;;11.03;100.00;99453.58;105064;1271;60686;-68
2022/05/30 05:26:08;;;;;;;18.00;11.00;;;;;;;11.05;100.00;99453.23;104929;1270;59925;-65
2022/05/30 05:29:27;;;;;;;19.00;10.90;;;;;;;11.09;100.00;99454.83;105102;1271;73783;-63
2022/05/30 05:32:15;;;;;;;22.70;12.30;;;;;;;11.12;100.00;99453.11;105142;1270;66978;-65
2022/05/30 05:35:02;;;;;;;26.50;16.10;;;;;;;11.19;100.00;99451.41;104789;1271;74357;-69
2022/05/30 05:37:49;;;;;;;21.50;12.60;;;;;;;11.24;100.00;99446.20;104695;1271;60306;-66
2022/05/30 05:40:58;;;;;;;20.90;12.10;;;;;;;11.30;100.00;99446.20;105115;1271;60382;-64
2022/05/30 05:43:53;;;;;;;21.20;12.60;;;;;;;11.29;99.57;99445.52;104816;1271;73685;-64
2022/05/30 05:46:39;;;;;;;20.80;12.00;;;;;;;11.29;99.58;99443.04;104897;1271;69738;-64
2022/05/30 05:49:26;;;;;;;20.10;11.80;;;;;;;11.31;99.59;99445.75;104945;1271;73202;-64
2022/05/30 05:52:13;;;;;;;20.60;12.50;;;;;;;11.31;99.69;99443.44;104872;1270;59882;-63
2022/05/30 05:54:59;;;;;;;22.90;13.10;;;;;;;11.32;99.37;99444.21;104814;1271;59695;-62
2022/05/30 05:57:46;;;;;;;21.50;12.40;;;;;;;11.32;99.33;99447.04;104942;1271;74963;-63
2022/05/30 06:00:34;;;;;;;22.50;12.30;;;;;;;11.31;99.15;99451.56;104988;1271;66551;-65
2022/05/30 06:03:20;;;;;;;20.60;12.10;;;;;;;11.29;98.88;99452.12;105024;1271;74297;-65
2022/05/30 06:06:29;;;;;;;21.00;12.30;;;;;;;11.30;99.02;99455.23;105038;1271;59755;-65
2022/05/30 06:09:23;;;;;;;24.60;13.30;;;;;;;11.31;99.02;99454.48;104888;1271;60390;-63
2022/05/30 06:12:15;;;;;;;22.80;12.80;;;;;;;11.31;98.97;99450.38;104889;1271;73922;-62
2022/05/30 06:15:05;;;;;;;21.90;11.70;;;;;;;11.35;99.26;99445.23;104835;1271;69548;-63
2022/05/30 06:17:56;;;;;;;20.80;12.20;;;;;;;11.45;99.41;99445.59;104696;1271;74534;-62
2022/05/30 06:20:43;;;;;;;17.70;9.40;;;;;;;11.53;98.97;99446.57;104723;1271;59788;-64
2022/05/30 06:23:32;;;;;;;18.50;11.00;;;;;;;11.57;98.64;99448.15;104976;1270;60370;-65
2022/05/30 06:26:57;;;;;;;21.80;12.40;;;;;;;11.60;98.23;99449.31;104746;1271;72348;-65
2022/05/30 06:29:52;;;;;;;17.50;10.90;;;;;;;11.68;98.44;99449.27;104661;1271;68680;-64
2022/05/30 06:32:39;;;;;;;17.60;10.10;;;;;;;11.77;97.93;99447.42;104878;1271;74287;-63
2022/05/30 06:35:33;;;;;;;15.80;9.40;;;;;;;11.86;97.59;99448.73;104843;1271;60681;-67
2022/05/30 06:38:20;;;;;;;15.00;9.90;;;;;;;11.91;96.55;99448.02;104748;1271;59746;-64
2022/05/30 06:41:29;;;;;;;16.20;9.80;;;;;;;11.98;95.65;99448.52;104811;1271;74645;-66
2022/05/30 06:44:19;;;;;;;15.20;10.10;;;;;;;12.06;95.86;99452.00;104827;1271;69533;-65
2022/05/30 06:47:26;;;;;;;16.30;9.50;;;;;;;12.12;94.96;99446.35;105360;1271;73088;-64
2022/05/30 06:50:51;;;;;;;13.80;8.50;;;;;;;12.21;94.74;99444.73;105094;1274;59742;-65
2022/05/30 06:53:40;;;;;;;15.20;10.20;;;;;;;12.31;94.06;99443.33;105000;1271;59601;-63
2022/05/30 06:56:39;;;;;;;13.90;8.70;;;;;;;12.39;92.85;99439.80;104942;1271;74576;-65
2022/05/30 06:59:25;;;;;;;14.20;9.00;;;;;;;12.47;91.65;99435.70;104936;1271;69799;-64
2022/05/30 07:02:12;;;;;;;14.40;8.90;;;;;;;12.55;90.96;99435.80;104799;1273;74363;-64
2022/05/30 07:05:28;;;;;;;17.00;10.00;;;;;;;12.72;90.82;99430.84;104904;1271;59765;-63
2022/05/30 07:08:34;;;;;;;16.30;8.70;;;;;;;12.94;90.31;99428.39;104677;1273;61583;-65
2022/05/30 07:11:50;;;;;;;14.20;8.10;;;;;;;13.22;88.29;99426.50;105307;1274;74076;-64
2022/05/30 07:14:39;;;;;;;14.20;8.30;;;;;;;13.47;87.05;99424.52;104772;1271;68435;-64
2022/05/30 07:17:26;;;;;;;14.40;6.50;;;;;;;13.67;85.40;99426.60;104712;1271;72088;-63
2022/05/30 07:20:14;;;;;;;11.00;6.50;;;;;;;13.85;83.23;99421.66;104825;1271;59869;-66
2022/05/30 07:23:20;;;;;;;12.30;7.20;;;;;;;14.10;82.33;99424.36;104876;1271;60376;-64
2022/05/30 07:26:25;;;;;;;12.00;7.00;;;;;;;14.40;81.01;99420.85;105116;1271;74567;-61
2022/05/30 07:29:31;;;;;;;16.10;10.50;;;;;;;14.87;81.07;99419.75;105155;1271;68617;-65
2022/05/30 07:32:41;;;;;;;11.80;6.60;;;;;;;15.64;77.52;99417.76;105330;1271;74417;-64
2022/05/30 07:35:46;;;;;;;9.30;5.40;;;;;;;16.42;73.09;99414.79;104919;1271;59666;-65
2022/05/30 07:39:01;;;;;;;8.60;5.00;;;;;;;17.14;67.95;99415.05;105056;1271;59626;-66
2022/05/30 07:42:10;;;;;;;12.40;6.50;;;;;;;17.90;65.04;99406.55;104908;1271;72893;-68
2022/05/30 07:45:17;;;;;;;9.20;4.90;;;;;;;18.89;63.17;99406.17;104869;1271;67345;-65
2022/05/30 07:48:22;;;;;;;10.40;5.50;;;;;;;19.64;59.43;99407.73;104828;1271;73437;-67
2022/05/30 07:51:28;;;;;;;10.90;4.80;;;;;;;20.15;57.77;99407.18;105142;1271;59649;-68
2022/05/30 07:54:37;;;;;;;8.20;4.20;;;;;;;20.13;57.27;99406.77;104812;1271;60668;-65
2022/05/30 07:57:51;;;;;;;8.50;3.80;;;;;;;19.82;57.70;99406.11;105135;1271;73626;-65
2022/05/30 08:00:39;;;;;;;8.60;4.50;;;;;;;19.46;57.76;99404.84;104762;1271;68414;-69
2022/05/30 08:03:31;;;;;;;7.50;3.80;;;;;;;19.16;58.29;99407.39;104840;1271;74607;-65
2022/05/30 08:06:51;;;;;;;8.80;4.10;;;;;;;18.83;58.58;99408.66;105266;1271;60760;-70
2022/05/30 08:09:56;;;;;;;9.20;4.10;;;;;;;18.62;60.30;99407.81;104801;1271;61843;-68
2022/05/30 08:12:47;;;;;;;8.60;4.60;;;;;;;18.45;61.48;99408.05;105055;1270;73815;-65
2022/05/30 08:16:04;;;;;;;8.40;3.80;;;;;;;18.19;61.35;99406.73;105106;1271;68546;-66
2022/05/30 08:18:52;;;;;;;8.10;3.60;;;;;;;17.91;61.87;99411.30;104909;1271;72374;-66
2022/05/30 08:21:38;;;;;;;8.30;3.90;;;;;;;17.61;62.69;99411.92;104744;1271;60141;-69
2022/05/30 08:24:24;;;;;;;8.60;4.10;;;;;;;17.35;62.93;99411.21;104872;1271;62363;-64
2022/05/30 08:27:15;;;;;;;9.90;5.40;;;;;;;17.13;63.22;99416.41;104725;1271;74773;-64
2022/05/30 08:30:07;;;;;;;10.50;5.10;;;;;;;16.86;64.25;99420.41;104836;1271;68391;-66
2022/05/30 08:32:55;;;;;;;11.70;6.10;;;;;;;16.48;65.84;99420.80;104798;1271;74213;-65
2022/05/30 08:36:09;;;;;;;12.60;6.00;;;;;;;16.09;67.71;99423.14;104928;1271;59759;-65
2022/05/30 08:41:46;;;;;;;14.10;7.00;;;;;;;15.79;68.64;99422.09;104762;1273;61003;-66
2022/05/30 08:42:04;;;;;;;12.30;6.10;;;;;;;15.60;69.94;99423.83;105175;1271;70965;-66
2022/05/30 08:45:30;;;;;;;11.90;5.50;;;;;;;15.45;71.16;99427.05;105146;1268;67158;-64
2022/05/30 08:49:13;;;;;;;10.80;5.40;;;;;;;15.34;71.13;99422.34;104810;1271;74366;-64
2022/05/30 08:52:43;;;;;;;10.10;5.60;;;;;;;15.23;71.14;99423.09;104769;1274;59659;-64
2022/05/30 08:56:00;;;;;;;9.90;4.40;;;;;;;15.14;70.86;99422.52;105087;1271;60926;-65
2022/05/30 08:59:50;;;;;;;9.60;4.40;;;;;;;15.00;70.87;99425.76;104959;1271;73725;-63
2022/05/30 09:02:59;;;;;;;8.30;3.70;;;;;;;14.80;71.22;99422.65;104801;1271;68816;-64
2022/05/30 09:05:55;;;;;;;8.40;3.20;;;;;;;14.65;71.90;99420.27;104643;1271;74209;-63
2022/05/30 09:09:11;;;;;;;10.20;3.40;;;;;;;14.57;72.49;99421.99;104737;1271;59765;-61
2022/05/30 09:12:52;;;;;;;8.20;3.60;;;;;;;14.60;73.38;99421.70;104706;1273;61988;-62
2022/05/30 09:16:00;;;;;;;8.90;3.20;;;;;;;14.64;72.33;99424.66;104966;1271;73860;-64
2022/05/30 09:18:52;;;;;;;9.60;3.70;;;;;;;14.76;73.12;99425.07;104816;1271;69431;-63
2022/05/30 09:21:46;;;;;;;8.40;3.60;;;;;;;14.99;73.06;99420.87;104952;1274;72689;-63
2022/05/30 09:24:35;;;;;;;9.50;3.30;;;;;;;15.11;72.74;99421.52;104649;1271;59749;-65
2022/05/30 09:27:23;;;;;;;8.70;3.30;;;;;;;15.17;71.79;99422.64;104789;1271;62058;-64
2022/05/30 09:30:15;;;;;;;8.80;3.40;;;;;;;15.22;71.19;99426.65;104804;1271;71521;-64
2022/05/30 09:33:40;;;;;;;6.50;2.90;;;;;;;15.19;70.92;99424.79;104785;1271;66895;-67
2022/05/30 09:36:51;;;;;;;6.70;2.90;;;;;;;15.21;70.71;99419.36;105025;1274;72651;-63
2022/05/30 09:39:54;;;;;;;7.60;3.00;;;;;;;15.54;69.61;99415.48;105011;1271;59983;-67
2022/05/30 09:42:55;;;;;;;8.20;2.90;;;;;;;16.05;67.84;99411.20;104825;1271;60422;-64
2022/05/30 09:45:42;;;;;;;7.80;2.90;;;;;;;16.93;67.06;99405.41;104750;1271;73634;-65
2022/05/30 09:48:29;;;;;;;8.40;2.90;;;;;;;18.19;63.24;99394.46;105047;1271;68635;-64
2022/05/30 09:51:34;;;;;;;6.40;2.60;;;;;;;19.43;58.61;99393.87;104854;1271;74240;-63
2022/05/30 09:54:28;;;;;;;7.30;2.70;;;;;;;20.87;54.42;99390.27;104932;1271;59574;-64
2022/05/30 09:57:35;;;;;;;7.10;2.30;;;;;;;22.01;50.77;99384.29;104818;1271;62025;-63
2022/05/30 10:00:38;;;;;;;5.90;2.00;;;;;;;22.79;46.77;99377.45;104941;1272;71832;-62
2022/05/30 10:03:40;;;;;;;6.10;2.10;;;;;;;22.39;46.13;99372.18;104689;1271;68362;-64
2022/05/30 10:06:42;;;;;;;6.70;2.50;;;;;;;22.40;46.45;99368.67;104992;1272;72787;-63
2022/05/30 10:10:18;;;;;;;6.20;2.10;;;;;;;23.28;44.97;99363.70;104800;1271;59731;-63
2022/05/30 10:13:09;;;;;;;6.20;2.40;;;;;;;23.79;43.09;99359.71;104764;1271;60282;-64
2022/05/30 10:16:34;;;;;;;6.80;2.40;;;;;;;23.36;43.83;99368.21;104828;1271;74537;-63
2022/05/30 10:19:31;;;;;;;6.40;2.60;;;;;;;22.79;44.64;99371.61;104873;1271;67771;-63
2022/05/30 10:30:11;;;;;;;7.20;3.10;;;;;;;20.61;49.33;99362.88;104946;1271;59568;-63
2022/05/30 10:33:48;;;;;;;7.80;2.60;;;;;;;20.47;50.04;99361.23;104781;1273;74648;-62
2022/05/30 10:36:53;;;;;;;7.30;3.10;;;;;;;20.26;50.30;99363.58;104804;1271;67550;-63
2022/05/30 10:40:02;;;;;;;8.50;3.30;;;;;;;19.83;51.42;99359.98;104892;1271;72974;-64
2022/05/30 10:42:57;;;;;;;8.60;3.70;;;;;;;19.43;52.17;99362.05;104822;1271;60193;-63
2022/05/30 10:46:18;;;;;;;9.00;3.40;;;;;;;19.22;52.77;99363.34;105090;1271;60426;-64
2022/05/30 10:49:18;;;;;;;7.50;2.90;;;;;;;18.99;53.51;99366.45;104856;1271;73749;-65
2022/05/30 10:52:24;;;;;;;7.10;3.20;;;;;;;19.28;52.53;99368.67;104732;1274;67465;-65
2022/05/30 10:55:24;;;;;;;6.80;3.00;;;;;;;20.08;51.35;99369.54;104798;1274;75053;-65
2022/05/30 10:58:37;;;;;;;6.70;2.60;;;;;;;20.22;50.72;99371.33;104933;1271;60376;-65
2022/05/30 11:01:57;;;;;;;10.20;2.80;;;;;;;20.16;50.17;99377.33;104851;1270;59563;-62
2022/05/30 11:05:14;;;;;;;9.70;3.10;;;;;;;19.94;50.06;99375.07;104795;1271;73620;-63
2022/05/30 11:08:05;;;;;;;7.30;3.00;;;;;;;19.73;51.29;99374.00;104866;1272;70018;-63
2022/05/30 11:11:02;;;;;;;7.30;2.60;;;;;;;19.49;51.94;99376.41;104698;1271;74343;-63
2022/05/30 11:14:10;;;;;;;7.10;2.80;;;;;;;19.26;52.43;99374.63;104728;1271;59738;-65
2022/05/30 11:18:09;;;;;;;7.50;2.60;;;;;;;19.49;52.12;99378.55;104787;1274;59759;-63
2022/05/30 11:21:55;;;;;;;5.90;2.10;;;;;;;20.19;50.73;99381.83;104598;1271;73545;-66
2022/05/30 11:24:45;;;;;;;5.90;2.20;;;;;;;20.95;49.26;99374.41;104906;1271;68279;-66
2022/05/30 11:28:03;;;;;;;6.00;2.40;;;;;;;21.54;47.67;99366.02;104806;1271;73116;-63
2022/05/30 11:31:21;;;;;;;5.90;2.30;;;;;;;21.52;47.15;99369.05;104640;1271;59858;-63
2022/05/30 11:34:36;;;;;;;5.80;2.30;;;;;;;21.38;46.93;99366.04;104900;1274;60309;-64
2022/05/30 11:37:35;;;;;;;6.20;2.40;;;;;;;21.10;47.65;99361.50;104924;1274;74771;-61
2022/05/30 11:41:03;;;;;;;6.90;2.80;;;;;;;20.65;48.15;99363.56;105119;1274;66543;-65
2022/05/30 11:44:28;;;;;;;6.60;2.70;;;;;;;20.09;48.60;99368.34;105027;1271;74545;-65
2022/05/30 11:47:31;;;;;;;8.00;3.60;;;;;;;19.67;50.05;99371.13;104888;1271;59653;-63
2022/05/30 11:50:31;;;;;;;7.40;3.20;;;;;;;19.23;50.87;99370.73;104937;1274;62018;-63
2022/05/30 11:54:00;;;;;;;9.90;3.20;;;;;;;18.88;51.67;99372.66;105091;1271;74769;-66
2022/05/30 11:57:08;;;;;;;7.60;3.10;;;;;;;18.47;52.00;99370.48;105003;1271;68444;-65
2022/05/30 12:00:13;;;;;;;7.10;2.70;;;;;;;18.09;52.87;99368.64;104909;1271;74336;-65
2022/05/30 12:03:06;;;;;;;7.80;2.80;;;;;;;17.85;53.75;99367.50;104680;1271;59631;-63
2022/05/30 12:06:11;;;;;;;8.10;3.10;;;;;;;17.63;54.47;99369.40;104698;1271;62080;-63
2022/05/30 12:09:38;;;;;;;8.20;3.10;;;;;;;17.42;55.61;99377.95;104749;1271;72716;-62
2022/05/30 12:13:01;;;;;;;7.90;2.80;;;;;;;17.22;55.12;99382.90;104831;1271;69444;-63
2022/05/30 12:16:27;;;;;;;8.80;3.00;;;;;;;17.06;56.18;99381.61;105019;1273;73687;-66
2022/05/30 12:26:09;;;;;;;7.40;2.40;;;;;;;16.68;56.78;99377.87;104172;1279;74553;-65
2022/05/30 12:28:56;;;;;;;6.80;2.40;;;;;;;16.66;57.48;99376.96;104208;1279;69504;-63
2022/05/30 12:31:42;;;;;;;6.30;2.30;;;;;;;16.67;57.80;99381.50;104269;1280;73466;-63
2022/05/30 12:37:58;;;;;;;6.80;2.20;;;;;;;16.56;56.08;99377.79;104397;1279;60084;-63
2022/05/30 12:41:17;;;;;;;6.90;2.20;;;;;;;16.49;56.54;99377.98;104180;1279;74725;-67
2022/05/30 12:44:22;;;;;;;7.00;2.60;;;;;;;16.49;57.55;99378.85;104275;1281;69662;-63
2022/05/30 12:47:16;;;;;;;8.40;2.50;;;;;;;16.58;58.26;99376.50;104323;1280;72039;-65
2022/05/30 12:50:15;;;;;;;8.00;2.80;;;;;;;16.57;58.42;99373.75;104170;1281;59731;-64
2022/05/30 12:53:05;;;;;;;8.10;2.00;;;;;;;16.52;57.74;99372.67;104197;1280;60449;-63
2022/05/30 12:55:58;;;;;;;6.70;2.40;;;;;;;16.45;56.92;99371.63;104193;1280;74565;-64
2022/05/30 12:59:05;;;;;;;7.40;2.80;;;;;;;16.39;57.53;99369.27;104370;1275;69467;-64
2022/05/30 13:01:58;;;;;;;7.60;2.50;;;;;;;16.38;57.83;99368.73;105115;1271;72038;-66
2022/05/30 13:04:52;;;;;;;7.80;2.60;;;;;;;16.30;57.63;99359.61;104871;1271;59692;-64
2022/05/30 13:07:39;;;;;;;6.40;2.40;;;;;;;16.33;58.10;99360.59;105087;1271;60249;-62
2022/05/30 13:10:39;;;;;;;7.80;2.40;;;;;;;16.41;57.41;99359.42;104959;1271;73481;-63
2022/05/30 13:13:31;;;;;;;7.50;2.40;;;;;;;16.45;56.95;99352.09;105010;1271;69417;-65
2022/05/30 13:16:36;;;;;;;9.80;2.90;;;;;;;16.62;57.07;99354.73;104915;1271;72970;-67
2022/05/30 13:19:22;;;;;;;9.30;2.70;;;;;;;16.81;57.27;99348.75;104864;1271;59665;-64
2022/05/30 13:22:09;;;;;;;10.60;3.00;;;;;;;16.99;57.12;99343.92;104945;1271;60548;-63
2022/05/30 13:24:57;;;;;;;7.50;2.90;;;;;;;17.10;56.36;99346.56;104727;1274;74701;-67
2022/05/30 13:27:48;;;;;;;9.70;2.90;;;;;;;17.13;56.26;99348.09;104772;1271;68609;-63
2022/05/30 13:30:37;;;;;;;9.30;2.90;;;;;;;17.17;56.07;99344.27;104721;1271;71910;-64
2022/05/30 13:33:50;;;;;;;7.20;2.20;;;;;;;17.17;55.64;99340.80;104953;1271;59544;-65
2022/05/30 13:36:36;;;;;;;5.80;1.80;;;;;;;17.08;56.16;99338.92;105082;1274;60357;-63
2022/05/30 13:39:23;;;;;;;8.70;2.10;;;;;;;16.96;55.88;99343.34;104776;1274;73506;-65
2022/05/30 13:42:09;;;;;;;6.40;2.40;;;;;;;16.86;56.07;99336.02;104968;1271;69513;-63
2022/05/30 13:45:01;;;;;;;8.10;2.40;;;;;;;16.79;55.85;99338.23;104892;1272;72672;-64
2022/05/30 13:47:47;;;;;;;6.00;2.10;;;;;;;16.76;55.37;99336.27;104846;1274;59887;-67
2022/05/30 13:51:01;;;;;;;6.50;2.00;;;;;;;16.74;54.91;99333.44;105048;1274;60378;-65
2022/05/30 13:53:53;;;;;;;6.70;1.60;;;;;;;16.70;55.58;99333.39;104757;1272;75049;-66
2022/05/30 13:56:46;;;;;;;5.60;1.80;;;;;;;16.83;56.10;99329.05;104956;1271;65924;-65
2022/05/30 13:59:40;;;;;;;5.30;1.60;;;;;;;16.84;54.66;99328.70;104878;1271;72457;-64
2022/05/30 14:02:49;;;;;;;5.90;1.40;;;;;;;16.71;54.48;99330.54;105001;1273;59523;-63